Time;durP1;ratioP1;P1;durP2;ratioP2;P2;SDS_P1;SDS_P2;PMS_P1;PMS_P2;Temp;Humidity;BMP_temperature;BMP_pressure;BME280_temperature;BME280_humidity;BME280_pressure;Samples;Min_cycle;Max_cycle;Signal;HPM_P1;HPM_P2
2024/03/26 00:01:39;;;;;;;3.38;1.20;;;;;;;18.64;38.81;99678.47;4969377;28;20114;-74
2024/03/26 00:04:04;;;;;;;4.30;1.40;;;;;;;18.64;38.72;99675.84;4968022;28;20567;-73
2024/03/26 00:06:29;;;;;;;3.45;1.23;;;;;;;18.58;38.43;99667.69;4970388;28;20037;-73
2024/03/26 00:08:56;;;;;;;3.85;1.40;;;;;;;18.53;38.66;99660.25;4970253;28;20054;-73
2024/03/26 00:11:23;;;;;;;4.55;1.33;;;;;;;18.51;38.44;99659.56;4970169;28;20364;-73
2024/03/26 00:13:48;;;;;;;4.38;1.40;;;;;;;18.53;38.40;99659.41;4970176;28;20065;-73
2024/03/26 00:16:14;;;;;;;3.08;1.08;;;;;;;18.62;38.34;99671.69;4970015;28;20058;-73
2024/03/26 00:18:39;;;;;;;3.10;1.20;;;;;;;18.48;38.51;99647.53;4970325;28;20026;-73
2024/03/26 00:21:04;;;;;;;2.83;1.10;;;;;;;18.48;38.69;99647.53;4969406;28;20023;-73
2024/03/26 00:23:30;;;;;;;5.05;1.52;;;;;;;18.57;38.67;99655.50;4970001;28;20027;-73
2024/03/26 00:25:55;;;;;;;3.63;1.27;;;;;;;18.56;38.45;99652.00;4969806;28;20034;-73
2024/03/26 00:28:20;;;;;;;3.47;1.38;;;;;;;18.44;38.21;99635.63;4970166;28;20399;-74
2024/03/26 00:30:45;;;;;;;3.47;1.42;;;;;;;18.45;38.29;99632.03;4968871;28;20030;-73
2024/03/26 00:33:11;;;;;;;3.70;1.20;;;;;;;18.52;38.19;99640.13;4969707;28;20026;-74
2024/03/26 00:35:36;;;;;;;2.78;1.20;;;;;;;18.43;38.28;99618.13;4969704;28;20193;-73
2024/03/26 00:38:02;;;;;;;4.38;1.30;;;;;;;18.55;38.28;99644.25;4970025;28;20030;-73
2024/03/26 00:40:27;;;;;;;4.15;1.45;;;;;;;18.54;38.11;99635.53;4969612;28;20035;-73
2024/03/26 00:42:53;;;;;;;4.00;1.55;;;;;;;18.47;38.07;99622.13;4969578;28;20487;-73
2024/03/26 00:45:18;;;;;;;3.95;1.40;;;;;;;18.39;38.06;99606.25;4969775;28;20058;-73
2024/03/26 00:47:43;;;;;;;4.00;1.40;;;;;;;18.39;38.23;99598.34;4969660;28;20046;-73
2024/03/26 00:50:09;;;;;;;3.13;1.30;;;;;;;18.40;38.19;99605.25;4969077;28;20214;-73
2024/03/26 00:52:35;;;;;;;4.75;1.60;;;;;;;18.48;37.80;99612.41;4969532;28;20066;-73
2024/03/26 00:55:00;;;;;;;3.28;1.27;;;;;;;18.47;38.19;99608.13;4969449;28;20132;-73
2024/03/26 00:57:25;;;;;;;4.07;1.33;;;;;;;18.37;38.09;99589.75;4969557;28;20034;-73
2024/03/26 00:59:51;;;;;;;4.10;1.40;;;;;;;18.33;38.12;99580.50;4967995;28;20042;-73
2024/03/26 01:02:16;;;;;;;3.50;1.17;;;;;;;18.32;38.10;99581.47;4968127;28;20030;-73
2024/03/26 01:04:41;;;;;;;3.92;1.30;;;;;;;18.36;37.94;99582.84;4968791;28;20265;-73
2024/03/26 01:07:06;;;;;;;3.78;1.27;;;;;;;18.33;38.09;99577.88;4968939;28;20114;-73
2024/03/26 01:09:32;;;;;;;3.58;1.40;;;;;;;18.32;37.96;99581.47;4984498;28;20038;-73
2024/03/26 01:11:57;;;;;;;4.25;1.40;;;;;;;18.31;37.79;99571.94;4969241;28;20118;-73
2024/03/26 01:14:22;;;;;;;3.00;1.33;;;;;;;18.28;37.72;99569.59;4969002;28;20049;-73
2024/03/26 01:16:48;;;;;;;4.78;1.65;;;;;;;18.38;37.93;99587.97;4969063;28;20106;-73
2024/03/26 01:19:13;;;;;;;5.40;1.55;;;;;;;18.29;37.70;99573.88;4968922;28;20050;-73
2024/03/26 01:21:38;;;;;;;4.30;1.30;;;;;;;18.27;37.46;99566.13;4968918;28;20896;-73
2024/03/26 01:24:03;;;;;;;4.35;1.48;;;;;;;18.39;37.79;99587.81;4968792;28;20035;-73
2024/03/26 01:26:29;;;;;;;3.78;1.40;;;;;;;18.34;37.61;99571.63;4968456;28;20145;-73
2024/03/26 01:28:54;;;;;;;3.35;1.27;;;;;;;18.32;37.51;99557.75;4969221;28;20173;-73
2024/03/26 01:31:19;;;;;;;3.58;1.30;;;;;;;18.34;37.54;99562.88;4968867;28;20058;-73
2024/03/26 01:33:44;;;;;;;4.18;1.27;;;;;;;18.27;37.50;99549.47;4968831;28;20039;-73
2024/03/26 01:36:10;;;;;;;3.80;1.27;;;;;;;18.24;37.40;99549.78;4968455;28;20062;-73
2024/03/26 01:38:35;;;;;;;3.58;1.38;;;;;;;18.27;37.34;99552.13;4968870;28;20031;-73
2024/03/26 01:41:00;;;;;;;3.83;1.43;;;;;;;18.33;37.38;99556.78;4968317;28;20337;-73
2024/03/26 01:43:25;;;;;;;4.15;1.35;;;;;;;18.29;37.51;99551.00;4968722;28;20257;-73
2024/03/26 01:45:51;;;;;;;4.67;1.73;;;;;;;18.24;37.48;99539.25;4968426;28;20485;-73
2024/03/26 01:48:16;;;;;;;4.07;1.45;;;;;;;18.25;37.43;99539.09;4968441;28;20257;-73
2024/03/26 01:50:42;;;;;;;4.63;1.55;;;;;;;18.28;37.29;99536.16;4968080;28;20058;-73
2024/03/26 01:53:07;;;;;;;4.55;1.27;;;;;;;18.19;37.46;99523.88;4968313;28;20041;-73
2024/03/26 01:55:34;;;;;;;3.80;1.10;;;;;;;18.17;37.29;99514.50;4967906;28;20049;-73
2024/03/26 01:58:00;;;;;;;3.55;1.45;;;;;;;18.19;37.44;99518.63;4968200;28;20027;-73
2024/03/26 02:00:29;;;;;;;3.83;1.30;;;;;;;18.26;37.19;99526.72;4968272;28;20027;-73
2024/03/26 02:02:54;;;;;;;5.20;1.60;;;;;;;18.24;37.12;99526.88;4965147;28;20027;-73
2024/03/26 02:05:20;;;;;;;3.45;1.23;;;;;;;18.24;37.17;99515.50;4967390;28;20470;-73
2024/03/26 02:07:45;;;;;;;4.30;1.38;;;;;;;18.25;37.30;99517.19;4967643;28;20535;-73
2024/03/26 02:10:10;;;;;;;4.32;1.02;;;;;;;18.14;37.09;99497.19;4968432;28;20023;-72
2024/03/26 02:12:36;;;;;;;2.97;1.13;;;;;;;18.23;37.24;99511.22;4968231;28;20464;-73
2024/03/26 02:15:01;;;;;;;3.83;1.30;;;;;;;18.20;37.32;99501.81;4967782;28;20479;-74
2024/03/26 02:17:26;;;;;;;5.10;1.40;;;;;;;18.20;37.30;99495.69;4968160;28;20029;-73
2024/03/26 02:19:52;;;;;;;3.85;1.35;;;;;;;18.22;37.24;99499.84;4968057;28;20038;-73
2024/03/26 02:22:17;;;;;;;3.40;1.40;;;;;;;18.13;37.04;99480.53;4967800;28;20027;-73
2024/03/26 02:24:42;;;;;;;4.55;1.30;;;;;;;18.19;37.44;99483.53;4967932;28;20031;-73
2024/03/26 02:27:08;;;;;;;4.43;1.33;;;;;;;18.08;37.35;99463.53;4966434;28;20023;-73
2024/03/26 02:29:33;;;;;;;3.50;1.10;;;;;;;18.19;37.44;99476.44;4967909;28;20031;-73
2024/03/26 02:31:58;;;;;;;3.45;1.55;;;;;;;18.18;36.94;99477.41;4967766;28;20019;-73
2024/03/26 02:34:23;;;;;;;2.95;1.30;;;;;;;18.18;36.97;99473.94;4967407;28;20035;-73
2024/03/26 02:36:49;;;;;;;2.65;1.08;;;;;;;18.15;37.43;99472.47;4968119;28;20519;-73
2024/03/26 02:39:14;;;;;;;4.88;1.55;;;;;;;18.13;37.06;99458.59;4967542;28;20031;-73
2024/03/26 02:41:40;;;;;;;3.78;1.33;;;;;;;18.18;37.26;99466.84;4968194;28;20043;-73
2024/03/26 02:44:06;;;;;;;3.55;1.20;;;;;;;18.17;36.93;99464.41;4968062;28;20034;-73
2024/03/26 02:46:31;;;;;;;3.90;1.30;;;;;;;18.14;37.35;99455.00;4967748;28;20455;-73
2024/03/26 02:48:58;;;;;;;4.38;1.13;;;;;;;18.17;37.28;99451.22;4967954;28;20460;-73
2024/03/26 02:51:23;;;;;;;3.80;1.20;;;;;;;18.03;37.55;99424.44;4967767;28;20034;-73
2024/03/26 02:53:48;;;;;;;4.82;1.30;;;;;;;18.15;37.39;99440.84;4970308;28;20041;-73
2024/03/26 02:56:14;;;;;;;4.50;1.30;;;;;;;18.12;37.25;99430.59;4971616;28;20764;-73
2024/03/26 02:58:39;;;;;;;2.70;1.17;;;;;;;18.10;37.44;99429.91;4971886;28;20257;-73
2024/03/26 03:01:09;;;;;;;4.82;1.42;;;;;;;18.12;37.23;99423.50;4971568;28;20117;-73
2024/03/26 03:03:37;;;;;;;3.10;1.10;;;;;;;18.10;37.52;99422.84;4970281;28;20030;-73
2024/03/26 03:06:07;;;;;;;3.72;1.30;;;;;;;18.13;37.29;99421.69;4971237;28;20035;-73
2024/03/26 03:08:33;;;;;;;4.75;1.50;;;;;;;18.09;37.33;99407.19;4971807;28;20216;-73
2024/03/26 03:10:58;;;;;;;4.10;1.50;;;;;;;18.10;37.32;99409.66;4971318;28;20137;-73
2024/03/26 03:13:23;;;;;;;3.22;1.10;;;;;;;18.09;37.10;99405.38;4971787;28;20047;-73
2024/03/26 03:15:49;;;;;;;3.60;1.55;;;;;;;18.12;37.18;99405.06;4971421;28;20038;-73
2024/03/26 03:18:14;;;;;;;4.10;1.33;;;;;;;17.98;36.92;99379.31;4970956;28;20113;-73
2024/03/26 03:20:39;;;;;;;4.47;1.40;;;;;;;18.09;37.20;99397.47;4969895;28;20050;-73
2024/03/26 03:23:05;;;;;;;4.07;1.30;;;;;;;18.08;37.06;99394.97;4971085;28;20034;-73
2024/03/26 03:25:30;;;;;;;3.38;1.20;;;;;;;18.07;36.97;99386.25;4971201;28;20031;-73
2024/03/26 03:27:56;;;;;;;4.57;1.35;;;;;;;18.05;37.02;99372.38;4971096;28;20033;-73
2024/03/26 03:30:24;;;;;;;4.53;1.33;;;;;;;18.08;36.80;99376.53;4971317;28;20101;-73
2024/03/26 03:32:49;;;;;;;3.80;1.40;;;;;;;17.92;36.89;99348.31;4970956;28;20046;-73
2024/03/26 03:35:14;;;;;;;2.92;1.33;;;;;;;18.06;36.68;99367.97;4971047;28;20050;-73
2024/03/26 03:37:40;;;;;;;3.28;1.13;;;;;;;18.06;36.96;99362.69;4971224;28;20117;-73
2024/03/26 03:40:06;;;;;;;4.05;1.42;;;;;;;17.90;36.86;99334.47;4971351;28;20031;-73
2024/03/26 03:42:31;;;;;;;3.70;1.20;;;;;;;18.00;36.87;99344.88;4971368;28;20038;-73
2024/03/26 03:44:56;;;;;;;3.63;1.52;;;;;;;17.92;37.20;99324.56;4971215;28;20036;-73
2024/03/26 03:47:22;;;;;;;3.42;1.38;;;;;;;18.02;37.04;99341.06;4970917;28;20038;-73
2024/03/26 03:49:47;;;;;;;3.60;1.30;;;;;;;18.03;36.62;99334.81;4970876;28;20026;-73
2024/03/26 03:52:13;;;;;;;3.75;1.77;;;;;;;17.98;36.88;99329.22;4970799;28;20114;-73
2024/03/26 03:54:38;;;;;;;3.90;1.23;;;;;;;17.97;36.65;99332.81;4970643;28;20031;-73
2024/03/26 03:57:04;;;;;;;2.97;1.10;;;;;;;17.88;36.84;99318.81;4970282;28;20348;-73
2024/03/26 03:59:29;;;;;;;3.20;1.20;;;;;;;18.02;36.75;99329.72;4970272;28;20375;-73
2024/03/26 04:01:54;;;;;;;4.78;1.42;;;;;;;17.99;36.81;99324.75;4969581;28;20027;-73
2024/03/26 04:04:20;;;;;;;3.80;1.20;;;;;;;17.99;36.70;99328.25;4968373;28;20023;-72
2024/03/26 04:06:45;;;;;;;3.40;1.25;;;;;;;17.95;36.99;99322.44;4970798;28;20037;-73
2024/03/26 04:09:10;;;;;;;3.55;1.17;;;;;;;17.87;36.66;99309.22;4970396;28;20375;-72
2024/03/26 04:11:36;;;;;;;3.58;1.27;;;;;;;17.87;36.73;99303.13;4970987;28;20115;-73
2024/03/26 04:14:02;;;;;;;2.78;1.00;;;;;;;17.94;36.69;99312.91;4985449;28;20062;-74
2024/03/26 04:16:27;;;;;;;3.58;1.20;;;;;;;17.92;36.60;99314.84;4971862;28;20026;-73
2024/03/26 04:18:53;;;;;;;3.70;1.30;;;;;;;17.93;36.76;99313.88;4971581;28;20353;-73
2024/03/26 04:21:18;;;;;;;4.53;1.38;;;;;;;17.84;36.60;99295.53;4971549;28;20161;-73
2024/03/26 04:23:43;;;;;;;3.72;1.20;;;;;;;17.84;36.46;99290.28;4970306;28;20043;-73
2024/03/26 04:26:10;;;;;;;3.30;1.20;;;;;;;17.92;36.57;99306.94;4971719;28;20031;-74
2024/03/26 04:28:35;;;;;;;3.58;1.42;;;;;;;17.87;36.81;99301.31;4971583;28;20379;-73
2024/03/26 04:31:01;;;;;;;3.58;1.40;;;;;;;17.91;36.64;99299.19;4971336;28;20034;-73
2024/03/26 04:33:26;;;;;;;3.50;1.23;;;;;;;17.86;36.71;99293.56;4985972;28;20035;-74
2024/03/26 04:35:51;;;;;;;3.50;1.25;;;;;;;17.84;36.89;99288.44;4971143;28;20069;-73
2024/03/26 04:38:17;;;;;;;3.33;1.40;;;;;;;17.93;36.59;99305.97;4971011;28;20027;-73
2024/03/26 04:40:42;;;;;;;3.53;1.20;;;;;;;17.91;36.66;99293.94;4969550;28;20030;-73
2024/03/26 04:43:09;;;;;;;4.28;1.50;;;;;;;17.89;36.69;99291.44;4971082;28;20041;-73
2024/03/26 04:45:35;;;;;;;3.17;1.35;;;;;;;17.79;36.85;99272.31;4970074;28;20030;-73
2024/03/26 04:48:00;;;;;;;3.97;1.35;;;;;;;17.76;36.83;99268.16;4970340;28;20030;-73
2024/03/26 04:50:26;;;;;;;3.00;1.10;;;;;;;17.90;36.76;99289.66;4971234;28;20043;-73
2024/03/26 04:52:52;;;;;;;3.53;1.50;;;;;;;17.83;36.71;99278.06;4971009;28;20037;-73
2024/03/26 04:55:17;;;;;;;3.05;1.50;;;;;;;17.76;36.67;99265.53;4971040;28;20065;-73
2024/03/26 04:57:43;;;;;;;3.45;1.20;;;;;;;17.80;36.77;99259.94;4969905;28;20026;-73
2024/03/26 05:00:12;;;;;;;4.05;1.33;;;;;;;17.79;36.59;99258.31;4971261;28;20484;-72
2024/03/26 05:02:38;;;;;;;3.17;1.15;;;;;;;17.89;36.95;99285.38;4970525;28;20045;-73
2024/03/26 05:05:03;;;;;;;2.92;1.20;;;;;;;17.78;36.63;99265.38;4971912;28;20386;-73
2024/03/26 05:07:29;;;;;;;2.45;1.13;;;;;;;17.54;36.44;99230.06;4971881;28;20038;-73
2024/03/26 05:09:54;;;;;;;3.30;1.10;;;;;;;17.83;36.44;99270.16;4972135;28;20077;-73
2024/03/26 05:12:19;;;;;;;3.63;1.30;;;;;;;17.74;36.63;99264.88;4972520;28;20027;-73
2024/03/26 05:14:44;;;;;;;5.25;1.42;;;;;;;17.77;36.78;99267.19;4974589;28;20371;-73
2024/03/26 05:17:10;;;;;;;3.92;1.20;;;;;;;17.83;36.55;99278.06;4973787;28;20030;-73
2024/03/26 05:19:35;;;;;;;3.38;1.30;;;;;;;17.84;36.85;99269.19;4974606;28;20054;-73
2024/03/26 05:22:00;;;;;;;3.75;1.10;;;;;;;17.85;36.84;99278.72;4974057;28;20590;-74
2024/03/26 05:24:25;;;;;;;2.27;1.10;;;;;;;17.82;36.75;99274.63;4974506;28;20035;-73
2024/03/26 05:26:51;;;;;;;3.30;1.27;;;;;;;17.81;36.66;99272.13;4975389;28;20742;-73
2024/03/26 05:29:18;;;;;;;3.80;1.10;;;;;;;17.82;36.98;99271.16;4974570;28;20034;-73
2024/03/26 05:31:43;;;;;;;2.45;1.08;;;;;;;17.75;36.66;99268.31;4975291;28;20111;-73
2024/03/26 05:34:08;;;;;;;4.32;1.17;;;;;;;17.71;36.54;99257.28;4974749;28;20054;-73
2024/03/26 05:36:34;;;;;;;2.70;1.00;;;;;;;17.71;36.36;99259.09;4972804;28;20075;-73
2024/03/26 05:38:59;;;;;;;2.92;1.00;;;;;;;17.77;36.66;99269.81;4968985;28;20023;-73
2024/03/26 05:41:24;;;;;;;3.40;1.20;;;;;;;17.77;36.72;99261.09;4969062;28;20022;-73
2024/03/26 05:43:52;;;;;;;3.83;1.40;;;;;;;17.68;36.58;99249.69;4968681;28;20029;-74
2024/03/26 05:46:18;;;;;;;3.95;1.13;;;;;;;17.64;36.67;99239.63;4968368;28;20077;-73
2024/03/26 05:48:43;;;;;;;2.78;1.38;;;;;;;17.67;36.76;99242.78;4968318;28;20070;-73
2024/03/26 05:51:08;;;;;;;3.17;1.20;;;;;;;17.79;36.46;99263.59;4968243;28;20439;-73
2024/03/26 05:53:34;;;;;;;2.08;1.08;;;;;;;17.76;36.73;99265.53;4966922;28;20096;-73
2024/03/26 05:55:59;;;;;;;4.13;1.40;;;;;;;17.77;36.91;99261.91;4967999;28;20034;-73
2024/03/26 05:58:24;;;;;;;3.30;1.20;;;;;;;17.67;36.48;99242.78;4967320;28;20390;-72
2024/03/26 06:00:50;;;;;;;3.67;1.20;;;;;;;17.76;36.96;99255.00;4983018;28;20027;-73
2024/03/26 06:03:15;;;;;;;1.90;0.98;;;;;;;17.76;37.04;99256.81;4966695;28;20030;-73
2024/03/26 06:05:40;;;;;;;3.85;1.25;;;;;;;17.77;37.44;99254.00;4967674;28;20363;-73
2024/03/26 06:08:07;;;;;;;2.65;1.00;;;;;;;17.79;37.71;99245.94;4968014;28;20455;-73
2024/03/26 06:10:32;;;;;;;2.60;1.00;;;;;;;17.82;37.58;99248.25;4967919;28;20117;-73
2024/03/26 06:12:57;;;;;;;2.58;1.10;;;;;;;17.75;37.56;99239.34;4967930;28;20113;-73
2024/03/26 06:15:23;;;;;;;2.42;0.90;;;;;;;17.89;37.85;99262.47;4968040;28;20030;-73
2024/03/26 06:17:48;;;;;;;2.60;1.10;;;;;;;17.75;37.90;99234.91;4968181;28;20030;-73
2024/03/26 06:20:13;;;;;;;3.10;1.17;;;;;;;17.80;37.70;99230.94;4968135;28;20039;-73
2024/03/26 06:22:39;;;;;;;2.17;0.90;;;;;;;17.91;37.63;99249.13;4967756;28;20018;-73
2024/03/26 06:25:05;;;;;;;3.70;1.13;;;;;;;17.93;37.64;99248.00;4968029;28;20035;-73
2024/03/26 06:27:30;;;;;;;2.67;1.02;;;;;;;17.89;37.63;99237.94;4967936;28;20142;-73
2024/03/26 06:29:56;;;;;;;2.85;1.08;;;;;;;17.86;37.59;99238.22;4966402;28;20130;-73
2024/03/26 06:32:21;;;;;;;3.05;1.20;;;;;;;18.03;37.55;99253.09;4982739;28;20030;-73
2024/03/26 06:34:47;;;;;;;2.88;1.05;;;;;;;18.00;37.23;99247.34;4967650;28;20039;-73
2024/03/26 06:37:13;;;;;;;2.65;1.10;;;;;;;18.00;37.44;99240.25;4967776;28;20042;-73
2024/03/26 06:39:38;;;;;;;3.00;1.17;;;;;;;18.17;37.38;99270.09;4965203;28;20031;-73
2024/03/26 06:42:04;;;;;;;1.70;0.80;;;;;;;18.13;37.26;99255.59;4967152;28;20447;-73
2024/03/26 06:44:29;;;;;;;2.85;0.90;;;;;;;18.17;37.51;99256.09;4965421;28;20085;-74
2024/03/26 06:46:55;;;;;;;1.88;0.80;;;;;;;18.12;37.33;99238.97;4967792;28;20371;-72
2024/03/26 06:49:20;;;;;;;3.42;0.82;;;;;;;18.16;37.32;99236.00;4967567;28;20065;-73
2024/03/26 06:51:46;;;;;;;2.88;1.05;;;;;;;18.27;37.37;99254.94;4967395;28;20034;-73
2024/03/26 06:54:11;;;;;;;3.20;1.00;;;;;;;18.27;37.34;99251.50;4967556;28;20058;-73
2024/03/26 06:56:36;;;;;;;3.97;1.10;;;;;;;18.29;37.23;99247.72;4967192;28;20027;-74
2024/03/26 06:59:02;;;;;;;2.42;0.80;;;;;;;18.31;37.38;99248.38;4967441;28;20037;-73
2024/03/26 07:01:27;;;;;;;2.65;1.00;;;;;;;18.30;37.18;99236.16;4967053;28;20411;-75
2024/03/26 07:03:52;;;;;;;2.40;1.00;;;;;;;18.31;37.18;99244.91;4966600;28;20027;-74
2024/03/26 07:06:18;;;;;;;2.65;1.10;;;;;;;18.20;37.77;99222.31;4967189;28;20126;-75
2024/03/26 07:08:44;;;;;;;2.70;1.00;;;;;;;18.20;38.12;99224.13;4967480;28;20027;-74
2024/03/26 07:11:10;;;;;;;2.10;1.00;;;;;;;18.21;37.91;99226.59;4967707;28;20416;-74
2024/03/26 07:13:35;;;;;;;3.45;1.00;;;;;;;18.23;38.09;99215.88;4966398;28;20089;-74
2024/03/26 07:16:01;;;;;;;2.67;0.90;;;;;;;18.31;38.17;99234.38;4966098;28;20034;-74
2024/03/26 07:18:26;;;;;;;2.20;0.80;;;;;;;18.25;38.34;99217.38;4967611;28;20045;-74
2024/03/26 07:20:51;;;;;;;2.95;1.10;;;;;;;18.36;38.62;99233.84;4967620;28;21258;-74
2024/03/26 07:23:16;;;;;;;3.17;1.33;;;;;;;18.28;38.31;99217.03;4967609;28;20447;-74
2024/03/26 07:25:42;;;;;;;3.03;1.10;;;;;;;18.36;38.14;99223.28;4967549;28;20027;-74
2024/03/26 07:28:07;;;;;;;3.20;1.00;;;;;;;18.24;38.28;99207.00;4966929;28;20268;-74
2024/03/26 07:30:33;;;;;;;2.28;1.00;;;;;;;18.28;38.52;99206.50;4967226;28;20035;-73
2024/03/26 07:32:58;;;;;;;2.00;0.77;;;;;;;18.24;38.34;99193.81;4967049;28;20030;-74
2024/03/26 07:35:26;;;;;;;2.58;1.00;;;;;;;18.34;38.52;99212.94;4966694;28;20082;-74
2024/03/26 07:37:52;;;;;;;3.50;1.38;;;;;;;18.40;38.55;99216.72;4967369;28;20034;-74
2024/03/26 07:40:17;;;;;;;2.28;0.95;;;;;;;18.36;38.55;99208.31;4969611;28;20039;-74
2024/03/26 07:42:42;;;;;;;2.38;1.10;;;;;;;18.40;38.46;99206.97;4969643;28;20039;-73
2024/03/26 07:45:09;;;;;;;2.85;1.10;;;;;;;18.29;38.63;99197.59;4970532;28;20035;-74
2024/03/26 07:47:37;;;;;;;2.45;1.05;;;;;;;18.26;38.62;99184.75;4970656;28;20042;-74
2024/03/26 07:50:02;;;;;;;2.42;1.08;;;;;;;18.31;39.05;99192.97;4970286;28;20053;-73
2024/03/26 07:52:28;;;;;;;3.63;1.08;;;;;;;18.42;39.08;99204.16;4970494;28;20065;-73
2024/03/26 07:54:53;;;;;;;3.13;1.08;;;;;;;18.29;38.81;99180.94;4970234;28;20042;-74
2024/03/26 07:57:19;;;;;;;2.67;1.00;;;;;;;18.29;39.12;99184.41;4970150;28;20039;-74
2024/03/26 07:59:44;;;;;;;3.65;1.13;;;;;;;18.36;39.19;99189.84;4970300;28;20593;-75
2024/03/26 08:02:11;;;;;;;2.72;1.10;;;;;;;18.40;39.10;99193.78;4969320;28;20082;-74
2024/03/26 08:04:41;;;;;;;3.13;1.27;;;;;;;18.35;38.92;99182.91;4970213;28;20030;-74
2024/03/26 08:07:07;;;;;;;2.53;1.10;;;;;;;18.30;39.13;99172.88;4970060;28;20073;-74
2024/03/26 08:09:32;;;;;;;2.55;0.80;;;;;;;18.31;39.15;99176.34;4970316;28;20062;-73
2024/03/26 08:11:57;;;;;;;3.20;0.93;;;;;;;18.27;39.21;99165.28;4970854;28;20030;-73
2024/03/26 08:14:23;;;;;;;4.20;1.10;;;;;;;18.40;39.26;99185.06;4969972;28;20034;-75
2024/03/26 08:16:48;;;;;;;2.00;0.80;;;;;;;18.41;39.32;99186.72;4970203;28;20038;-75
2024/03/26 08:19:13;;;;;;;3.70;1.17;;;;;;;18.30;39.33;99166.78;4966638;28;20068;-73
2024/03/26 08:21:39;;;;;;;3.10;1.25;;;;;;;18.29;38.79;99158.06;4969032;28;20110;-73
2024/03/26 08:24:04;;;;;;;3.42;1.42;;;;;;;18.45;38.35;99183.59;4969237;28;20038;-72
2024/03/26 08:26:30;;;;;;;3.53;1.20;;;;;;;18.39;38.61;99167.56;4968612;28;20058;-72
2024/03/26 08:28:56;;;;;;;2.28;1.08;;;;;;;18.34;38.65;99152.28;4969177;28;20031;-69
2024/03/26 08:31:21;;;;;;;2.80;1.20;;;;;;;18.43;38.73;99169.72;4968998;28;20034;-72
2024/03/26 08:33:47;;;;;;;3.13;1.20;;;;;;;18.33;38.64;99155.09;4966194;28;20039;-73
2024/03/26 08:36:12;;;;;;;3.15;1.15;;;;;;;18.36;38.62;99157.34;4968905;28;20066;-73
2024/03/26 08:38:38;;;;;;;3.92;1.20;;;;;;;18.43;38.62;99175.00;4968881;28;20083;-73
2024/03/26 08:41:03;;;;;;;3.83;1.42;;;;;;;18.43;38.66;99166.25;4967621;28;20043;-75
2024/03/26 08:43:29;;;;;;;2.97;1.00;;;;;;;18.45;38.91;99164.28;4968407;28;20050;-75
2024/03/26 08:45:54;;;;;;;3.90;1.30;;;;;;;18.11;38.74;99113.38;4968721;28;20499;-75
2024/03/26 08:48:20;;;;;;;3.53;1.50;;;;;;;18.45;38.57;99149.28;4967953;28;20034;-76
2024/03/26 08:50:45;;;;;;;4.55;1.30;;;;;;;18.39;38.62;99136.78;4967680;28;20088;-76
2024/03/26 08:53:10;;;;;;;3.83;1.50;;;;;;;18.40;38.46;99138.41;4969967;28;20035;-79
2024/03/26 08:55:37;;;;;;;3.35;1.20;;;;;;;18.50;38.86;99138.25;4968614;28;20030;-74
2024/03/26 08:58:02;;;;;;;3.55;1.30;;;;;;;18.42;38.86;99125.03;4968735;28;20049;-71
2024/03/26 09:00:28;;;;;;;3.55;1.25;;;;;;;18.53;38.52;99151.06;4968603;28;20027;-74
2024/03/26 09:02:54;;;;;;;4.60;1.38;;;;;;;18.39;38.57;99120.94;4967361;28;20241;-77
2024/03/26 09:05:19;;;;;;;3.72;1.15;;;;;;;18.42;38.66;99125.88;4967242;28;20126;-77
2024/03/26 09:07:44;;;;;;;2.55;1.00;;;;;;;18.50;38.69;99135.59;4968855;28;20121;-75
2024/03/26 09:10:10;;;;;;;7.68;1.85;;;;;;;18.42;38.90;99125.88;4967592;28;20490;-76
2024/03/26 09:12:36;;;;;;;7.40;1.63;;;;;;;18.54;38.53;99139.53;4968742;28;20034;-74
2024/03/26 09:15:01;;;;;;;8.15;1.55;;;;;;;18.46;38.98;99127.19;4968545;28;20085;-75
2024/03/26 09:17:27;;;;;;;8.18;1.70;;;;;;;18.53;38.82;99143.16;4968527;28;20113;-75
2024/03/26 09:19:52;;;;;;;4.90;1.60;;;;;;;18.41;38.69;99118.94;4967918;28;20533;-73
2024/03/26 09:22:17;;;;;;;5.78;1.45;;;;;;;18.54;38.63;99130.81;4966984;28;20637;-73
2024/03/26 09:24:42;;;;;;;4.82;1.60;;;;;;;18.53;38.40;99137.06;4967599;28;20687;-72
2024/03/26 09:27:08;;;;;;;5.47;1.60;;;;;;;18.43;38.42;99124.88;4968081;28;20121;-74
2024/03/26 09:29:33;;;;;;;3.30;1.42;;;;;;;18.46;38.66;99115.81;4967977;28;20045;-74
2024/03/26 09:31:59;;;;;;;4.18;1.30;;;;;;;18.55;38.67;99135.06;4967594;28;20042;-75
2024/03/26 09:34:24;;;;;;;4.88;1.30;;;;;;;18.42;38.34;99107.41;4966058;28;20042;-75
2024/03/26 09:36:50;;;;;;;4.20;1.50;;;;;;;18.56;38.44;99128.81;4966515;28;20042;-74
2024/03/26 09:39:15;;;;;;;2.75;1.13;;;;;;;18.44;38.68;99105.44;4967843;28;20077;-75
2024/03/26 09:41:41;;;;;;;5.18;1.35;;;;;;;18.49;38.93;99097.81;4967897;28;20066;-74
2024/03/26 09:44:07;;;;;;;4.93;1.63;;;;;;;18.53;38.66;99108.03;4967735;28;20073;-75
2024/03/26 09:46:34;;;;;;;3.60;1.45;;;;;;;18.54;38.81;99096.50;4967794;28;20114;-75
2024/03/26 09:49:02;;;;;;;4.75;1.17;;;;;;;18.51;38.77;99092.38;4966401;28;20031;-75
2024/03/26 09:51:29;;;;;;;3.78;1.40;;;;;;;18.48;38.89;99087.44;4967835;28;20031;-71
2024/03/26 09:53:57;;;;;;;2.83;1.20;;;;;;;18.59;38.91;99096.81;4966971;28;20035;-75
2024/03/26 09:56:23;;;;;;;4.28;1.40;;;;;;;18.47;38.93;99084.00;4967801;28;20110;-75
2024/03/26 09:58:48;;;;;;;2.63;1.15;;;;;;;18.57;39.10;99096.97;4967216;28;20463;-74
2024/03/26 10:01:16;;;;;;;5.47;1.42;;;;;;;18.62;39.16;99096.47;4967533;28;21924;-73
2024/03/26 10:03:42;;;;;;;3.75;1.40;;;;;;;18.60;39.35;99101.91;4966336;28;20035;-74
2024/03/26 10:06:09;;;;;;;3.10;1.10;;;;;;;18.47;39.39;99070.81;4967457;28;20459;-77
2024/03/26 10:08:35;;;;;;;3.80;1.30;;;;;;;18.60;39.21;99095.84;4967929;28;20060;-75
2024/03/26 10:11:00;;;;;;;3.40;1.20;;;;;;;18.59;39.38;99091.53;4967433;28;20042;-74
2024/03/26 10:13:25;;;;;;;6.70;1.95;;;;;;;18.41;39.18;99068.84;4967173;28;20145;-75
2024/03/26 10:15:52;;;;;;;3.88;1.40;;;;;;;18.49;39.33;99086.47;4967878;28;20035;-75
2024/03/26 10:18:18;;;;;;;4.35;1.38;;;;;;;18.51;39.23;99094.22;4967130;28;20070;-73
2024/03/26 10:20:43;;;;;;;7.00;1.60;;;;;;;18.58;39.46;99101.28;4967155;28;20068;-75
2024/03/26 10:23:09;;;;;;;4.05;1.40;;;;;;;18.55;38.91;99098.13;4965491;28;20035;-73
2024/03/26 10:25:34;;;;;;;6.10;1.42;;;;;;;18.57;39.16;99098.81;4966183;28;20058;-71
2024/03/26 10:28:01;;;;;;;4.13;1.60;;;;;;;18.47;39.05;99076.09;4966937;28;20419;-74
2024/03/26 10:30:27;;;;;;;4.40;1.40;;;;;;;18.51;39.31;99078.38;4966885;28;20038;-74
2024/03/26 10:32:57;;;;;;;5.28;1.70;;;;;;;18.27;39.24;99041.34;4967249;28;20043;-74
2024/03/26 10:35:23;;;;;;;3.53;1.30;;;;;;;18.56;39.36;99079.50;4966710;28;20055;-72
2024/03/26 10:37:54;;;;;;;3.88;1.58;;;;;;;18.47;38.90;99059.44;4966983;28;20063;-74
2024/03/26 10:40:31;;;;;;;3.90;1.45;;;;;;;18.59;39.33;99078.34;4964753;28;20054;-75
2024/03/26 10:43:01;;;;;;;5.05;1.60;;;;;;;18.58;39.36;99069.63;4967459;28;20030;-75
2024/03/26 10:45:26;;;;;;;4.15;1.70;;;;;;;18.56;39.62;99065.50;4965387;28;20574;-74
2024/03/26 10:47:53;;;;;;;4.45;1.35;;;;;;;18.57;39.34;99070.59;4965795;28;20061;-73
2024/03/26 10:50:19;;;;;;;4.28;1.40;;;;;;;18.57;39.36;99059.25;4965254;28;20125;-74
2024/03/26 10:52:46;;;;;;;3.40;1.52;;;;;;;18.58;39.33;99066.13;4966714;28;20133;-74
2024/03/26 10:55:12;;;;;;;4.97;1.60;;;;;;;18.47;39.33;99031.25;4967609;28;20538;-74
2024/03/26 10:57:40;;;;;;;3.05;1.50;;;;;;;18.56;39.35;99052.31;4966986;28;20062;-76
2024/03/26 11:00:10;;;;;;;4.50;1.65;;;;;;;18.41;39.00;99025.81;4967669;28;20030;-75
2024/03/26 11:02:38;;;;;;;4.65;1.80;;;;;;;18.54;39.24;99041.94;4965059;28;20027;-77
2024/03/26 11:05:05;;;;;;;2.97;1.20;;;;;;;18.54;39.31;99041.09;4965592;28;20472;-74
2024/03/26 11:07:36;;;;;;;5.63;2.10;;;;;;;18.48;39.49;99026.78;4966740;28;20027;-78
2024/03/26 11:10:09;;;;;;;3.20;1.30;;;;;;;18.53;39.31;99031.53;4967655;28;20054;-75
2024/03/26 11:12:39;;;;;;;6.00;1.52;;;;;;;18.44;39.25;99018.38;4966843;28;20034;-74
2024/03/26 11:15:16;;;;;;;4.07;1.50;;;;;;;18.56;39.49;99037.28;4969457;28;20038;-72
2024/03/26 11:17:55;;;;;;;5.05;1.40;;;;;;;18.52;39.38;99028.09;4967387;28;20031;-73
2024/03/26 11:20:21;;;;;;;4.63;1.60;;;;;;;18.53;39.66;99031.53;4970205;28;20026;-74
2024/03/26 11:23:06;;;;;;;6.05;1.25;;;;;;;18.41;39.71;99002.91;4970432;28;20453;-72
2024/03/26 11:25:32;;;;;;;2.75;1.20;;;;;;;18.56;40.03;99025.94;4969722;28;20031;-73
2024/03/26 11:27:59;;;;;;;3.28;1.40;;;;;;;18.55;39.95;99026.91;4970075;28;20042;-73